DE2MSF Weather Reports


Display with metric or nautical units.
time (UTC)temp
F
wind
direction
speed
MPH
gust
MPH
rain 1hr
in
rain 24hr
in
rain mn
in
humidity
%
barometer
mb
20240522174515 66 250 3.0 11.0 0.00 0.64 0.22 68 1010.8
20240522173013 66 234 4.0 9.0 0.00 0.64 0.22 68 1010.9
20240522171514 66 246 5.0 11.0 0.00 0.64 0.22 68 1010.7
20240522164514 67 262 3.0 9.0 0.00 0.64 0.22 67 1010.7
20240522161514 66 253 6.0 14.0 0.00 0.64 0.22 69 1010.7
20240522160013 66 223 5.0 17.0 0.00 0.64 0.22 68 1010.8
20240522154514 67 254 3.0 9.0 0.00 0.64 0.22 68 1010.8
20240522153013 65 251 6.0 16.0 0.00 0.64 0.22 68 1010.9
20240522151514 66 235 5.0 14.0 0.00 0.64 0.22 72 1010.9
20240522144513 65 243 4.0 11.0 0.00 0.64 0.22 75 1010.9
20240522143013 63 228 6.0 14.0 0.00 0.64 0.22 76 1011.1
20240522141514 63 240 4.0 11.0 0.00 0.64 0.22 78 1011.1
20240522140013 64 267 3.0 11.0 0.00 0.64 0.22 75 1011.1
20240522134514 65 275 4.0 11.0 0.00 0.64 0.22 74 1011.1
20240522133013 64 284 6.0 15.0 0.00 0.64 0.22 74 1010.8
20240522131513 65 262 3.0 13.0 0.00 0.64 0.22 73 1010.8
20240522130013 64 273 4.0 15.0 0.00 0.64 0.22 77 1010.7
20240522124516 65 277 3.0 11.0 0.00 0.64 0.22 76 1010.6
20240522121513 64 283 4.0 11.0 0.00 0.64 0.22 77 1010.3
20240522120013 65 281 4.0 11.0 0.00 0.64 0.22 74 1009.9
20240522113013 63 253 4.0 13.0 0.00 0.64 0.22 78 1009.8
20240522111513 62 277 4.0 11.0 0.00 0.64 0.22 81 1010.0
20240522104513 62 255 4.0 11.0 0.00 0.64 0.22 81 1009.6
20240522103014 63 266 4.0 11.0 0.00 0.64 0.22 81 1009.5
20240522101514 62 271 3.0 9.0 0.00 0.64 0.22 81 1009.3
20240522100013 62 249 5.0 13.0 0.00 0.64 0.22 82 1009.4
20240522094515 62 263 4.0 9.0 0.00 0.64 0.22 83 1009.2
20240522093013 61 268 5.0 13.0 0.00 0.64 0.22 83 1008.9
20240522091513 62 265 4.0 14.0 0.00 0.64 0.22 85 1008.9
20240522084513 60 271 4.0 11.0 0.00 0.64 0.22 90 1008.5
20240522083012 60 285 4.0 7.0 0.00 0.64 0.22 91 1008.4
20240522081513 60 249 4.0 7.0 0.00 0.64 0.22 92 1008.5
20240522080012 59 248 5.0 9.0 0.01 0.64 0.22 94 1008.2
20240522074513 59 240 4.0 9.0 0.01 0.64 0.22 96 1008.0
20240522073013 58 243 5.0 9.0 0.01 0.64 0.22 96 1007.9
20240522071513 59 234 5.0 11.0 0.01 0.64 0.22 95 1007.7
20240522070013 59 230 5.0 11.0 0.00 0.63 0.21 94 1007.6
20240522064513 59 264 3.0 7.0 0.00 0.63 0.21 94 1007.3
20240522063013 59 248 3.0 8.0 0.00 0.63 0.21 94 1007.3
20240522061512 59 235 4.0 8.0 0.00 0.63 0.21 95 1007.1
20240522060013 58 228 5.0 11.0 0.00 0.63 0.21 95 1006.9
20240522053013 58 140 4.0 7.0 0.00 0.63 0.21 99 1006.5
20240522051512 58 263 3.0 6.0 0.00 0.63 0.21 99 1006.4
20240522050013 58 248 3.0 7.0 0.00 0.63 0.21 99 1006.0
20240522044513 57 260 3.0 7.0 0.00 0.63 0.21 99 1005.8
20240522043013 57 248 1.0 4.0 0.00 0.63 0.21 99 1005.8
20240522041513 57 249 4.0 9.0 0.00 0.63 0.21 99 1005.6
20240522040013 57 266 2.0 7.0 0.00 0.63 0.21 99 1005.4
20240522033013 57 251 3.0 8.0 0.00 0.63 0.21 99 1005.4
20240522031513 57 245 4.0 8.0 0.00 0.63 0.21 99 1005.3
20240522030013 57 222 4.0 8.0 0.00 0.63 0.21 99 1005.2
20240522024513 57 249 4.0 8.0 0.00 0.63 0.21 99 1004.9
20240522021514 57 246 5.0 11.0 0.00 0.63 0.21 99 1004.9
20240522020013 57 250 4.0 9.0 0.00 0.63 0.21 99 1004.9
20240522014515 57 253 3.0 9.0 0.00 0.63 0.21 99 1004.8
20240522013013 57 257 3.0 8.0 0.00 0.63 0.21 99 1004.6
20240522011513 58 274 2.0 7.0 0.02 0.63 0.21 99 1004.7
20240522010012 58 275 4.0 11.0 0.05 0.63 0.21 99 1004.5
20240522004513 58 273 3.0 11.0 0.07 0.63 0.21 99 1004.4
20240522003012 58 288 4.0 13.0 0.08 0.63 0.21 99 1004.6
20240522001513 58 274 5.0 13.0 0.07 0.60 0.19 99 1004.6
20240522000013 58 286 3.0 11.0 0.07 0.58 0.17 99 1004.6
20240521233012 59 270 3.0 8.0 0.09 0.54 0.13 99 1004.8
20240521231513 59 300 0.0 2.0 0.11 0.53 0.12 99 1004.4
20240521230012 59 314 1.0 4.0 0.09 0.51 0.09 99 1004.6
20240521224513 59 292 0.0 2.0 0.12 0.51 0.09 99 1004.4
20240521223012 59 310 0.0 4.0 0.07 0.45 0.04 99 1004.8
20240521220012 59 42 2.0 6.0 0.05 0.41 0.00 99 1005.0
20240521214515 58 329 3.0 8.0 0.04 0.39 0.39 99 1004.8
20240521211513 58 326 5.0 11.0 0.02 0.37 0.37 99 1005.1
20240521210012 59 319 5.0 11.0 0.04 0.37 0.37 99 1005.6
20240521203012 59 312 3.0 7.0 0.04 0.34 0.34 99 1006.2
20240521201512 59 310 2.0 6.0 0.05 0.34 0.34 99 1006.5
20240521200011 59 298 1.0 4.0 0.05 0.33 0.33 98 1006.7
20240521194512 59 284 1.0 7.0 0.04 0.32 0.32 98 1006.8
20240521193011 59 273 2.0 7.0 0.02 0.31 0.31 98 1007.1
20240521191512 59 266 2.0 8.0 0.02 0.30 0.30 97 1007.1
20240521190011 60 256 3.0 8.0 0.28 0.28 0.28 97 1007.4
20240521184512 60 245 3.0 11.0 0.28 0.28 0.28 96 1007.3
20240521183012 60 220 5.0 11.0 0.28 0.28 0.28 95 1007.5
20240521181512 60 208 6.0 16.0 0.27 0.27 0.27 94 1007.6